createdAt,value
2018-05-13T00:00:45.272Z,8.90
2018-05-13T00:03:13.534Z,8.38
2018-05-13T00:05:41.833Z,8.60
2018-05-13T00:08:10.110Z,8.75
2018-05-13T00:10:38.423Z,9.40
2018-05-13T00:13:06.719Z,8.97
2018-05-13T00:15:35.017Z,8.70
2018-05-13T00:18:03.339Z,8.40
2018-05-13T00:20:32.170Z,8.53
2018-05-13T00:23:00.458Z,8.50
2018-05-13T00:25:28.809Z,8.03
2018-05-13T00:27:57.110Z,7.13
2018-05-13T00:30:25.388Z,7.33
2018-05-13T00:32:53.674Z,7.83
2018-05-13T00:35:21.926Z,7.05
2018-05-13T00:37:51.003Z,7.13
2018-05-13T00:40:19.278Z,8.20
2018-05-13T00:42:47.565Z,8.33
2018-05-13T00:45:15.906Z,7.47
2018-05-13T00:47:44.154Z,7.27
2018-05-13T00:50:12.422Z,7.50
2018-05-13T00:52:40.752Z,7.57
2018-05-13T00:55:09.013Z,7.30
2018-05-13T00:57:37.324Z,10.43
2018-05-13T01:00:05.619Z,6.93
2018-05-13T01:02:33.915Z,7.50
2018-05-13T01:05:02.239Z,6.97
2018-05-13T01:07:30.526Z,7.13
2018-05-13T01:09:58.790Z,7.40
2018-05-13T01:12:27.111Z,7.68
2018-05-13T01:14:55.399Z,8.00
2018-05-13T01:17:23.673Z,7.07
2018-05-13T01:19:51.971Z,7.23
2018-05-13T01:22:20.358Z,7.60
2018-05-13T01:24:48.682Z,7.57
2018-05-13T01:27:16.943Z,7.87
2018-05-13T01:29:45.293Z,6.97
2018-05-13T01:32:13.605Z,7.67
2018-05-13T01:34:41.898Z,7.63
2018-05-13T01:37:10.173Z,7.45
2018-05-13T01:39:38.462Z,7.40
2018-05-13T01:42:07.238Z,8.10
2018-05-13T01:44:35.530Z,7.40
2018-05-13T01:47:04.214Z,8.00
2018-05-13T01:49:32.950Z,8.13
2018-05-13T01:52:01.227Z,7.53
2018-05-13T01:54:29.529Z,7.07
2018-05-13T01:56:57.787Z,9.17
2018-05-13T01:59:26.589Z,10.20
2018-05-13T02:01:54.898Z,11.17
2018-05-13T02:04:23.208Z,11.70
2018-05-13T02:06:51.496Z,12.05
2018-05-13T02:09:19.774Z,11.70
2018-05-13T02:11:48.089Z,12.17
2018-05-13T02:14:16.371Z,12.37
2018-05-13T02:16:45.191Z,12.90
2018-05-13T02:19:13.470Z,13.25
2018-05-13T02:21:41.780Z,12.47
2018-05-13T02:24:10.058Z,11.25
2018-05-13T02:26:38.416Z,11.57
2018-05-13T02:29:06.700Z,10.70
2018-05-13T02:31:35.003Z,9.23
2018-05-13T02:34:04.319Z,8.23
2018-05-13T02:36:32.678Z,8.57
2018-05-13T02:39:00.943Z,7.87
2018-05-13T02:41:29.323Z,8.83
2018-05-13T02:43:57.566Z,7.40
2018-05-13T02:46:25.878Z,7.57
2018-05-13T02:48:54.217Z,8.07
2018-05-13T02:51:22.499Z,7.43
2018-05-13T02:53:50.776Z,7.90
2018-05-13T02:56:19.084Z,8.32
2018-05-13T02:58:47.376Z,8.23
2018-05-13T03:01:15.631Z,8.85
2018-05-13T03:03:43.915Z,8.93
2018-05-13T03:06:12.277Z,8.50
2018-05-13T03:08:40.572Z,9.18
2018-05-13T03:11:08.870Z,9.10
2018-05-13T03:13:37.151Z,8.80
2018-05-13T03:16:05.430Z,9.63
2018-05-13T03:18:34.497Z,8.53
2018-05-13T03:21:02.737Z,7.90
2018-05-13T03:23:31.023Z,7.97
2018-05-13T03:25:59.324Z,8.80
2018-05-13T03:28:27.610Z,7.77
2018-05-13T03:30:56.525Z,6.90
2018-05-13T03:33:24.816Z,7.67
2018-05-13T03:35:53.068Z,7.43
2018-05-13T03:38:21.351Z,7.20
2018-05-13T03:40:49.656Z,6.90
2018-05-13T03:43:17.937Z,7.30
2018-05-13T03:45:46.210Z,7.13
2018-05-13T03:48:14.477Z,6.95
2018-05-13T03:50:42.781Z,7.77
2018-05-13T03:53:11.040Z,8.10
2018-05-13T03:55:39.374Z,8.63
2018-05-13T03:58:07.642Z,7.90
2018-05-13T04:00:36.019Z,7.80
2018-05-13T04:03:05.792Z,7.10
2018-05-13T04:05:34.093Z,8.10
2018-05-13T04:11:28.007Z,7.50
2018-05-13T04:14:08.055Z,7.07
2018-05-13T04:16:36.486Z,7.33
2018-05-13T04:19:05.557Z,6.03
2018-05-13T04:21:33.843Z,6.50
2018-05-13T04:24:02.129Z,6.70
2018-05-13T04:26:30.413Z,6.17
2018-05-13T04:28:58.665Z,6.50
2018-05-13T04:31:26.987Z,6.07
2018-05-13T04:33:55.276Z,6.40
2018-05-13T04:36:23.574Z,6.07
2018-05-13T04:38:51.862Z,5.67
2018-05-13T04:41:20.194Z,6.20
2018-05-13T04:43:48.491Z,6.27
2018-05-13T04:46:16.759Z,5.87
2018-05-13T04:48:45.055Z,5.90
2018-05-13T04:51:13.323Z,6.25
2018-05-13T04:53:41.612Z,6.00
2018-05-13T04:56:09.886Z,6.35
2018-05-13T04:58:38.185Z,5.53
2018-05-13T05:01:07.370Z,6.00
2018-05-13T05:03:35.673Z,6.17
2018-05-13T05:06:04.933Z,5.93
2018-05-13T05:08:33.222Z,6.73
2018-05-13T05:11:01.541Z,7.10
2018-05-13T05:13:33.560Z,6.67
2018-05-13T05:16:01.823Z,7.13
2018-05-13T05:18:30.109Z,7.80
2018-05-13T05:20:58.372Z,8.20
2018-05-13T05:23:26.681Z,7.70
2018-05-13T05:25:54.942Z,8.03
2018-05-13T05:28:23.243Z,8.07
2018-05-13T05:30:51.515Z,8.20
2018-05-13T05:33:19.804Z,8.50
2018-05-13T05:35:48.115Z,7.90
2018-05-13T05:38:16.585Z,8.32
2018-05-13T05:40:44.853Z,7.80
2018-05-13T05:43:13.123Z,8.00
2018-05-13T05:45:41.483Z,7.50
2018-05-13T05:48:09.753Z,7.50
2018-05-13T05:50:38.042Z,7.33
2018-05-13T05:53:06.307Z,7.83
2018-05-13T05:55:34.597Z,7.43
2018-05-13T05:58:03.001Z,7.32
2018-05-13T06:00:31.290Z,7.30
2018-05-13T06:02:59.567Z,7.40
2018-05-13T06:05:27.924Z,7.27
2018-05-13T06:07:56.198Z,7.60
2018-05-13T06:10:24.485Z,7.37
2018-05-13T06:12:52.779Z,8.73
2018-05-13T06:15:21.054Z,8.18
2018-05-13T06:17:49.344Z,9.87
2018-05-13T06:20:17.690Z,9.95
2018-05-13T06:22:46.250Z,11.45
2018-05-13T06:25:14.640Z,12.32
2018-05-13T06:27:42.864Z,14.20
2018-05-13T06:30:11.144Z,15.03
2018-05-13T06:32:39.458Z,15.20
2018-05-13T06:35:08.651Z,16.47
2018-05-13T06:37:36.970Z,16.90
2018-05-13T06:40:05.238Z,16.90
2018-05-13T06:42:33.610Z,16.37
2018-05-13T06:45:01.814Z,17.97
2018-05-13T06:47:30.115Z,18.10
2018-05-13T06:49:58.409Z,18.93
2018-05-13T06:52:26.693Z,19.00
2018-05-13T06:54:54.999Z,19.13
2018-05-13T06:57:25.135Z,20.42
2018-05-13T06:59:53.346Z,19.50
2018-05-13T07:02:21.638Z,19.30
2018-05-13T07:04:49.950Z,19.60
2018-05-13T07:07:18.588Z,19.00
2018-05-13T07:09:46.860Z,18.90
2018-05-13T07:12:15.180Z,18.37
2018-05-13T07:14:43.491Z,20.40
2018-05-13T07:17:11.843Z,20.40
2018-05-13T07:19:40.102Z,18.55
2018-05-13T07:22:08.404Z,18.13
2018-05-13T07:24:36.706Z,18.23
2018-05-13T07:27:05.020Z,19.90
2018-05-13T07:29:33.303Z,17.87
2018-05-13T07:32:03.939Z,18.27
2018-05-13T07:34:32.252Z,18.57
2018-05-13T07:37:16.125Z,20.20
2018-05-13T07:39:44.392Z,19.50
2018-05-13T07:42:12.676Z,19.65
2018-05-13T07:44:41.236Z,19.13
2018-05-13T07:47:09.561Z,20.10
2018-05-13T07:49:37.894Z,19.50
2018-05-13T07:52:06.234Z,19.23
2018-05-13T07:54:34.535Z,20.37
2018-05-13T07:57:02.845Z,20.55
2018-05-13T07:59:31.130Z,17.33
2018-05-13T08:01:59.796Z,17.30
2018-05-13T08:04:28.100Z,17.85
2018-05-13T08:06:56.375Z,17.00
2018-05-13T08:09:26.506Z,18.43
2018-05-13T08:11:56.748Z,18.33
2018-05-13T08:14:25.309Z,17.90
2018-05-13T08:16:53.559Z,16.53
2018-05-13T08:19:22.041Z,17.60
2018-05-13T08:21:50.283Z,18.80
2018-05-13T08:24:19.312Z,18.73
2018-05-13T08:26:47.644Z,19.97
2018-05-13T08:29:15.909Z,19.10
2018-05-13T08:31:44.799Z,20.10
2018-05-13T08:34:13.154Z,19.40
2018-05-13T08:36:41.479Z,19.83
2018-05-13T08:39:09.745Z,18.30
2018-05-13T08:41:38.041Z,18.17
2018-05-13T08:44:07.156Z,18.80
2018-05-13T08:46:35.484Z,16.33
2018-05-13T08:49:03.750Z,16.63
2018-05-13T08:51:32.102Z,18.40
2018-05-13T08:54:00.492Z,18.13
2018-05-13T08:56:28.711Z,17.50
2018-05-13T08:58:56.995Z,17.80
2018-05-13T09:01:25.296Z,17.47
2018-05-13T09:03:53.612Z,16.30
2018-05-13T09:06:21.908Z,17.55
2018-05-13T09:08:50.193Z,15.60
2018-05-13T09:11:18.500Z,13.40
2018-05-13T09:13:46.768Z,12.57
2018-05-13T09:16:15.170Z,13.40
2018-05-13T09:18:43.442Z,15.00
2018-05-13T09:21:12.217Z,13.50
2018-05-13T09:23:40.495Z,11.60
2018-05-13T09:26:08.772Z,12.43
2018-05-13T09:28:37.095Z,12.23
2018-05-13T09:31:05.375Z,12.70
2018-05-13T09:33:33.684Z,12.80
2018-05-13T09:36:01.962Z,13.73
2018-05-13T09:38:30.300Z,12.63
2018-05-13T09:40:58.952Z,12.82
2018-05-13T09:43:27.296Z,11.63
2018-05-13T09:45:55.656Z,12.48
2018-05-13T09:48:23.928Z,11.23
2018-05-13T09:50:52.242Z,11.87
2018-05-13T09:53:20.562Z,10.43
2018-05-13T09:55:49.335Z,11.30
2018-05-13T09:58:17.647Z,12.25
2018-05-13T10:00:46.004Z,11.90
2018-05-13T10:03:14.991Z,12.40
2018-05-13T10:05:43.273Z,12.68
2018-05-13T10:08:11.565Z,14.10
2018-05-13T10:10:39.952Z,12.67
2018-05-13T10:13:08.228Z,12.57
2018-05-13T10:15:36.550Z,12.83
2018-05-13T10:18:05.332Z,11.35
2018-05-13T10:20:33.636Z,11.80
2018-05-13T10:23:02.089Z,14.90
2018-05-13T10:25:30.355Z,13.40
2018-05-13T10:27:58.626Z,14.20
2018-05-13T10:30:26.983Z,12.50
2018-05-13T10:32:55.228Z,11.10
2018-05-13T10:35:23.584Z,11.95
2018-05-13T10:37:51.843Z,12.80
2018-05-13T10:40:20.172Z,12.50
2018-05-13T10:42:48.801Z,11.83
2018-05-13T10:45:17.067Z,12.40
2018-05-13T10:47:45.390Z,11.73
2018-05-13T10:50:13.658Z,12.03
2018-05-13T10:52:42.030Z,11.20
2018-05-13T10:55:10.301Z,11.43
2018-05-13T10:57:38.662Z,12.00
2018-05-13T11:00:06.871Z,12.03
2018-05-13T11:02:35.176Z,11.67
2018-05-13T11:05:03.479Z,11.07
2018-05-13T11:07:32.562Z,12.07
2018-05-13T11:10:01.303Z,11.40
2018-05-13T11:12:29.623Z,12.47
2018-05-13T11:14:59.003Z,13.20
2018-05-13T11:17:27.410Z,12.23
2018-05-13T11:19:55.685Z,11.50
2018-05-13T11:22:24.500Z,11.43
2018-05-13T11:24:52.791Z,11.20
2018-05-13T11:27:21.105Z,12.15
2018-05-13T11:29:50.016Z,11.90
2018-05-13T11:32:18.321Z,12.20
2018-05-13T11:34:46.655Z,12.97
2018-05-13T11:37:15.632Z,12.57
2018-05-13T11:39:44.932Z,12.40
2018-05-13T11:42:13.206Z,12.77
2018-05-13T11:44:41.508Z,12.60
2018-05-13T11:47:09.789Z,12.43
2018-05-13T11:49:38.078Z,13.90
2018-05-13T11:52:06.363Z,15.07
2018-05-13T11:54:34.695Z,15.47
2018-05-13T11:57:02.934Z,14.40
2018-05-13T11:59:31.698Z,15.27
2018-05-13T12:02:00.003Z,14.80
2018-05-13T12:04:28.279Z,16.30
2018-05-13T12:06:56.554Z,15.77
2018-05-13T12:09:24.972Z,14.50
2018-05-13T12:11:53.250Z,16.00
2018-05-13T12:14:21.586Z,15.20
2018-05-13T12:16:49.883Z,15.20
2018-05-13T12:19:18.145Z,16.25
2018-05-13T12:21:46.442Z,15.82
2018-05-13T12:24:14.719Z,16.60
2018-05-13T12:26:43.023Z,17.07
2018-05-13T12:29:11.322Z,16.73
2018-05-13T12:31:40.084Z,17.43
2018-05-13T12:34:08.357Z,15.75
2018-05-13T12:36:36.786Z,15.77
2018-05-13T12:39:05.806Z,16.17
2018-05-13T12:41:34.149Z,18.50
2018-05-13T12:44:02.465Z,17.93
2018-05-13T12:46:30.805Z,17.90
2018-05-13T12:48:59.169Z,13.87
2018-05-13T12:51:27.478Z,17.90
2018-05-13T12:53:55.818Z,17.50
2018-05-13T12:56:24.174Z,17.08
2018-05-13T12:58:53.310Z,17.50
2018-05-13T13:01:22.640Z,15.60
2018-05-13T13:03:50.966Z,16.30
2018-05-13T13:06:19.225Z,15.47
2018-05-13T13:08:47.511Z,16.87
2018-05-13T13:11:15.875Z,17.80
2018-05-13T13:13:44.174Z,17.40
2018-05-13T13:16:12.458Z,16.33
2018-05-13T13:18:40.761Z,17.33
2018-05-13T13:21:09.064Z,17.23
2018-05-13T13:23:37.342Z,18.00
2018-05-13T13:26:05.661Z,16.37
2018-05-13T13:28:34.775Z,18.95
2018-05-13T13:31:03.048Z,17.77
2018-05-13T13:33:32.183Z,17.77
2018-05-13T13:36:00.490Z,17.37
2018-05-13T13:38:29.682Z,17.30
2018-05-13T13:40:57.955Z,17.85
2018-05-13T13:43:26.279Z,16.97
2018-05-13T13:45:54.614Z,17.70
2018-05-13T13:48:22.936Z,17.50
2018-05-13T13:50:51.213Z,19.00
2018-05-13T13:53:19.634Z,18.12
2018-05-13T13:55:48.045Z,17.90
2018-05-13T13:58:17.352Z,17.20
2018-05-13T14:00:46.932Z,18.00
2018-05-13T14:03:15.227Z,18.40
2018-05-13T14:05:43.542Z,18.33
2018-05-13T14:08:11.824Z,18.45
2018-05-13T14:10:40.452Z,18.48
2018-05-13T14:13:08.772Z,17.93
2018-05-13T14:15:37.158Z,17.83
2018-05-13T14:18:05.706Z,18.23
2018-05-13T14:20:33.992Z,19.00
2018-05-13T14:23:02.275Z,18.10
2018-05-13T14:25:30.576Z,18.63
2018-05-13T14:27:58.845Z,18.67
2018-05-13T14:30:27.146Z,18.67
2018-05-13T14:32:55.842Z,19.20
2018-05-13T14:35:24.104Z,19.83
2018-05-13T14:37:52.447Z,19.80
2018-05-13T14:40:20.743Z,17.95
2018-05-13T14:42:49.043Z,18.50
2018-05-13T14:45:17.470Z,18.00
2018-05-13T14:47:45.743Z,18.43
2018-05-13T14:50:13.980Z,17.27
2018-05-13T14:52:42.295Z,18.10
2018-05-13T14:55:10.635Z,18.48
2018-05-13T14:57:38.916Z,17.70
2018-05-13T15:00:07.202Z,17.90
2018-05-13T15:02:35.551Z,19.30
2018-05-13T15:05:04.719Z,17.93
2018-05-13T15:07:33.047Z,18.07
2018-05-13T15:10:01.323Z,18.70
2018-05-13T15:12:29.670Z,18.40
2018-05-13T15:14:58.934Z,20.00
2018-05-13T15:17:27.248Z,18.90
2018-05-13T15:19:55.511Z,19.37
2018-05-13T15:22:29.368Z,19.97
2018-05-13T15:24:57.566Z,18.93
2018-05-13T15:27:25.879Z,19.70
2018-05-13T15:29:54.143Z,20.57
2018-05-13T15:32:22.482Z,21.40
2018-05-13T15:34:50.774Z,20.80
2018-05-13T15:37:19.155Z,20.40
2018-05-13T15:39:47.351Z,20.87
2018-05-13T15:42:16.459Z,19.83
2018-05-13T15:44:44.755Z,21.03
2018-05-13T15:47:13.043Z,23.73
2018-05-13T15:49:41.327Z,22.10
2018-05-13T15:52:09.600Z,20.47
2018-05-13T15:54:37.926Z,22.20
2018-05-13T15:57:06.244Z,22.53
2018-05-13T15:59:34.534Z,22.57
2018-05-13T16:02:02.799Z,21.70
2018-05-13T16:04:31.110Z,23.07
2018-05-13T16:06:59.382Z,23.77
2018-05-13T16:09:28.030Z,22.17
2018-05-13T16:11:56.350Z,23.77
2018-05-13T16:14:25.194Z,22.03
2018-05-13T16:16:53.483Z,20.60
2018-05-13T16:19:21.746Z,21.80
2018-05-13T16:21:50.055Z,21.40
2018-05-13T16:24:18.312Z,20.80
2018-05-13T16:26:46.609Z,20.83
2018-05-13T16:29:14.874Z,21.77
2018-05-13T16:31:43.170Z,20.40
2018-05-13T16:34:11.434Z,20.00
2018-05-13T16:36:39.739Z,20.50
2018-05-13T16:39:08.002Z,20.57
2018-05-13T16:41:36.301Z,21.10
2018-05-13T16:44:04.603Z,20.93
2018-05-13T16:46:32.915Z,20.47
2018-05-13T16:49:01.244Z,21.83
2018-05-13T16:51:29.536Z,21.30
2018-05-13T16:53:57.793Z,21.43
2018-05-13T16:56:26.126Z,20.97
2018-05-13T16:58:54.406Z,20.57
2018-05-13T17:01:22.706Z,21.40
2018-05-13T17:03:50.984Z,21.23
2018-05-13T17:06:19.504Z,20.53
2018-05-13T17:08:47.798Z,20.70
2018-05-13T17:11:16.116Z,21.00
2018-05-13T17:13:44.389Z,19.90
2018-05-13T17:16:12.731Z,19.07
2018-05-13T17:18:41.003Z,18.50
2018-05-13T17:21:09.294Z,19.50
2018-05-13T17:23:37.585Z,22.20
2018-05-13T17:26:05.875Z,18.57
2018-05-13T17:28:34.148Z,19.13
2018-05-13T17:31:02.446Z,17.57
2018-05-13T17:33:31.519Z,14.60
2018-05-13T17:35:59.785Z,15.67
2018-05-13T17:38:28.086Z,15.87
2018-05-13T17:40:57.466Z,11.80
2018-05-13T17:43:26.014Z,10.73
2018-05-13T17:45:55.409Z,10.43
2018-05-13T17:48:23.753Z,10.13
2018-05-13T17:50:52.077Z,10.97
2018-05-13T17:53:21.374Z,10.43
2018-05-13T17:55:49.687Z,10.13
2018-05-13T17:58:17.961Z,10.37
2018-05-13T18:00:46.277Z,10.30
2018-05-13T18:03:14.680Z,10.33
2018-05-13T18:05:42.815Z,9.97
2018-05-13T18:08:11.158Z,9.23
2018-05-13T18:10:39.438Z,10.17
2018-05-13T18:13:07.740Z,9.37
2018-05-13T18:15:36.023Z,10.23
2018-05-13T18:18:04.324Z,10.20
2018-05-13T18:20:32.586Z,9.87
2018-05-13T18:23:00.914Z,10.07
2018-05-13T18:25:29.489Z,9.10
2018-05-13T18:27:57.741Z,10.10
2018-05-13T18:30:26.069Z,9.97
2018-05-13T18:32:54.547Z,10.00
2018-05-13T18:35:22.889Z,11.13
2018-05-13T18:37:51.234Z,9.53
2018-05-13T18:40:20.438Z,10.33
2018-05-13T18:42:48.765Z,10.60
2018-05-13T18:45:17.113Z,10.20
2018-05-13T18:47:45.404Z,10.63
2018-05-13T18:50:13.741Z,11.60
2018-05-13T18:52:42.050Z,11.53
2018-05-13T18:55:10.374Z,11.40
2018-05-13T18:57:38.686Z,10.57
2018-05-13T19:00:06.967Z,11.90
2018-05-13T19:02:35.310Z,11.20
2018-05-13T19:05:03.611Z,13.13
2018-05-13T19:07:31.935Z,12.70
2018-05-13T19:10:00.215Z,11.77
2018-05-13T19:12:28.523Z,13.20
2018-05-13T19:14:56.788Z,11.57
2018-05-13T19:17:25.110Z,15.07
2018-05-13T19:19:53.432Z,13.47
2018-05-13T19:22:21.727Z,12.30
2018-05-13T19:24:50.059Z,13.50
2018-05-13T19:27:18.334Z,13.20
2018-05-13T19:29:46.595Z,13.07
2018-05-13T19:32:14.917Z,14.20
2018-05-13T19:34:43.183Z,13.47
2018-05-13T19:37:11.491Z,14.20
2018-05-13T19:39:39.797Z,13.50
2018-05-13T19:42:09.375Z,13.23
2018-05-13T19:44:37.687Z,15.90
2018-05-13T19:47:05.968Z,13.50
2018-05-13T19:49:34.316Z,15.03
2018-05-13T19:52:02.582Z,13.03
2018-05-13T19:54:30.941Z,12.53
2018-05-13T19:56:59.246Z,12.20
2018-05-13T19:59:27.556Z,12.30
2018-05-13T20:01:55.839Z,11.90
2018-05-13T20:04:24.463Z,13.40
2018-05-13T20:06:52.731Z,12.60
2018-05-13T20:09:21.060Z,12.80
2018-05-13T20:11:49.336Z,14.53
2018-05-13T20:14:19.617Z,13.80
2018-05-13T20:16:47.904Z,13.20
2018-05-13T20:19:16.306Z,12.40
2018-05-13T20:21:44.551Z,11.43
2018-05-13T20:24:12.911Z,11.70
2018-05-13T20:26:41.190Z,12.00
2018-05-13T20:29:09.518Z,11.87
2018-05-13T20:31:37.832Z,12.23
2018-05-13T20:34:06.104Z,12.47
2018-05-13T20:36:34.418Z,12.30
2018-05-13T20:39:02.761Z,12.10
2018-05-13T20:41:31.028Z,12.17
2018-05-13T20:43:59.355Z,12.90
2018-05-13T20:46:27.635Z,12.63
2018-05-13T20:48:55.959Z,13.90
2018-05-13T20:51:24.241Z,14.87
2018-05-13T20:53:52.626Z,14.90
2018-05-13T20:56:20.923Z,15.70
2018-05-13T20:58:49.195Z,14.70
2018-05-13T21:01:17.528Z,16.90
2018-05-13T21:03:46.137Z,15.47
2018-05-13T21:06:14.430Z,16.73
2018-05-13T21:08:42.725Z,18.33
2018-05-13T21:11:11.112Z,18.53
2018-05-13T21:13:39.473Z,19.23
2018-05-13T21:16:07.799Z,19.10
2018-05-13T21:18:36.178Z,20.30
2018-05-13T21:21:04.570Z,23.27
2018-05-13T21:23:32.904Z,23.90
2018-05-13T21:26:01.357Z,23.90
2018-05-13T21:28:29.730Z,23.90
2018-05-13T21:30:58.008Z,23.40
2018-05-13T21:33:26.291Z,25.33
2018-05-13T21:35:54.629Z,25.10
2018-05-13T21:38:22.919Z,25.15
2018-05-13T21:40:51.258Z,26.80
2018-05-13T21:43:19.548Z,26.77
2018-05-13T21:45:47.929Z,26.07
2018-05-13T21:48:16.271Z,25.20
2018-05-13T21:50:44.615Z,25.07
2018-05-13T21:53:12.914Z,26.10
2018-05-13T21:55:41.219Z,27.33
2018-05-13T21:58:09.544Z,27.77
2018-05-13T22:00:38.166Z,26.50
2018-05-13T22:03:06.592Z,27.00
2018-05-13T22:05:34.865Z,28.03
2018-05-13T22:08:04.239Z,27.23
2018-05-13T22:10:32.516Z,27.77
2018-05-13T22:13:00.875Z,27.33
2018-05-13T22:15:29.154Z,25.60
2018-05-13T22:17:57.650Z,29.10
2018-05-13T22:20:25.962Z,27.70
2018-05-13T22:22:54.289Z,27.23
2018-05-13T22:25:22.592Z,28.23
2018-05-13T22:27:50.892Z,28.93
2018-05-13T22:30:19.170Z,29.35
2018-05-13T22:32:47.490Z,28.33
2018-05-13T22:35:15.771Z,27.10
2018-05-13T22:37:44.086Z,28.80
2018-05-13T22:40:12.644Z,30.00
2018-05-13T22:42:40.979Z,28.67
2018-05-13T22:45:09.281Z,28.83
2018-05-13T22:47:37.587Z,28.43
2018-05-13T22:50:06.164Z,29.20
2018-05-13T22:52:34.444Z,30.53
2018-05-13T22:55:02.804Z,29.27
2018-05-13T22:57:31.057Z,30.20
2018-05-13T22:59:59.366Z,29.55
2018-05-13T23:02:27.813Z,29.70
2018-05-13T23:04:56.153Z,30.33
2018-05-13T23:07:24.399Z,30.70
2018-05-13T23:09:52.761Z,29.50
2018-05-13T23:12:21.024Z,28.65
2018-05-13T23:14:49.333Z,28.20
2018-05-13T23:17:17.634Z,29.77
2018-05-13T23:19:45.926Z,28.53
2018-05-13T23:22:26.557Z,30.48
2018-05-13T23:24:54.891Z,29.10
2018-05-13T23:27:23.241Z,29.00
2018-05-13T23:29:51.511Z,28.17
2018-05-13T23:32:19.838Z,27.50
2018-05-13T23:34:48.460Z,29.30
2018-05-13T23:37:16.731Z,26.33
2018-05-13T23:39:45.059Z,26.40
2018-05-13T23:42:13.351Z,27.77
2018-05-13T23:44:41.662Z,27.23
2018-05-13T23:47:09.944Z,27.02
2018-05-13T23:49:38.239Z,25.23
2018-05-13T23:52:06.534Z,23.67
2018-05-13T23:54:34.930Z,22.70
2018-05-13T23:57:03.247Z,23.23
2018-05-13T23:59:32.743Z,22.02
